Time;durP1;ratioP1;P1;durP2;ratioP2;P2;SDS_P1;SDS_P2;PMS_P1;PMS_P2;Temp;Humidity;BMP_temperature;BMP_pressure;BME280_temperature;BME280_humidity;BME280_pressure;Samples;Min_cycle;Max_cycle;Signal;HPM_P1;HPM_P2
2023/05/24 00:01:24;;;;;;;21.23;5.80;;;;;;;9.59;90.62;102576.66;5037425;28;20286;-69
2023/05/24 00:03:53;;;;;;;21.08;5.10;;;;;;;9.50;90.88;102576.69;5026105;28;20033;-70
2023/05/24 00:06:19;;;;;;;18.85;4.22;;;;;;;9.46;91.58;102561.59;5037167;28;20052;-69
2023/05/24 00:08:45;;;;;;;20.52;5.45;;;;;;;9.39;92.02;102555.84;5038667;28;20044;-70
2023/05/24 00:11:11;;;;;;;15.93;4.82;;;;;;;9.37;91.78;102559.72;5041180;28;20393;-69
2023/05/24 00:13:37;;;;;;;21.08;4.75;;;;;;;9.37;91.96;102555.13;5041677;28;20108;-69
2023/05/24 00:16:02;;;;;;;18.67;5.70;;;;;;;9.35;91.93;102551.66;5041110;28;20200;-69
2023/05/24 00:18:31;;;;;;;25.17;3.90;;;;;;;9.28;92.69;102545.06;5039422;28;20393;-69
2023/05/24 00:20:57;;;;;;;25.83;4.20;;;;;;;9.20;91.76;102539.50;5034488;28;20088;-69
2023/05/24 00:23:25;;;;;;;19.97;4.63;;;;;;;9.11;92.09;102534.91;5037216;28;20029;-69
2023/05/24 00:25:52;;;;;;;25.95;4.30;;;;;;;9.07;92.58;102536.19;5038102;28;20048;-70
2023/05/24 00:28:17;;;;;;;14.40;3.55;;;;;;;9.02;92.51;102545.84;5036820;28;20449;-70
2023/05/24 00:30:43;;;;;;;21.70;3.92;;;;;;;8.97;93.58;102548.16;5033931;28;20029;-70
2023/05/24 00:33:08;;;;;;;22.05;4.05;;;;;;;8.92;93.67;102551.31;5035750;28;20167;-69
2023/05/24 00:35:34;;;;;;;29.63;4.63;;;;;;;8.85;93.94;102552.03;5036313;28;20056;-70
2023/05/24 00:37:59;;;;;;;23.13;3.63;;;;;;;8.86;94.13;102553.78;5032500;28;20025;-69
2023/05/24 00:40:26;;;;;;;24.20;3.65;;;;;;;8.84;94.52;102550.31;5032763;28;20037;-69
2023/05/24 00:42:54;;;;;;;;;;;;;;;8.78;94.97;102550.91;5036148;28;20178;-69
2023/05/24 00:45:21;;;;;;;18.65;4.22;;;;;;;8.73;94.32;102555.94;5033970;28;19912;-69
2023/05/24 00:47:47;;;;;;;20.92;3.83;;;;;;;8.72;95.45;102544.16;5034305;28;20099;-69
2023/05/24 00:50:13;;;;;;;16.50;4.07;;;;;;;8.55;95.07;102542.09;5039973;28;20465;-70
2023/05/24 00:52:41;;;;;;;18.00;3.65;;;;;;;8.57;95.37;102555.63;5035071;28;20040;-68
2023/05/24 00:55:07;;;;;;;20.20;4.10;;;;;;;8.53;96.13;102541.41;5039995;28;20472;-69
2023/05/24 00:57:34;;;;;;;19.95;4.72;;;;;;;8.50;96.92;102536.22;5036761;28;20082;-69
2023/05/24 01:00:00;;;;;;;17.63;3.67;;;;;;;8.43;97.13;102532.34;5034221;28;20500;-70
2023/05/24 01:02:27;;;;;;;21.25;4.30;;;;;;;8.31;96.74;102533.47;5034827;28;20118;-72
2023/05/24 01:04:55;;;;;;;;;;;;;;;8.30;97.82;102530.88;5038331;28;20174;-72
2023/05/24 01:07:40;;;;;;;19.65;4.30;;;;;;;8.31;99.09;102527.13;5042377;28;19940;-72
2023/05/24 01:10:20;;;;;;;19.98;4.47;;;;;;;8.32;99.10;102520.69;5035988;28;20025;-72
2023/05/24 01:12:52;;;;;;;29.02;4.00;;;;;;;8.31;98.61;102530.75;5041448;28;20503;-73
2023/05/24 01:15:22;;;;;;;21.27;3.67;;;;;;;8.31;98.49;102527.13;5039993;28;20025;-73
2023/05/24 01:18:16;;;;;;;17.88;4.85;;;;;;;8.27;99.20;102525.72;5046740;28;20028;-72
2023/05/24 01:20:42;;;;;;;22.27;3.90;;;;;;;8.25;98.54;102528.59;5041796;28;20037;-72
2023/05/24 01:23:40;;;;;;;17.52;4.35;;;;;;;8.22;98.44;102525.28;5047936;28;20033;-72
2023/05/24 01:26:19;;;;;;;14.17;4.03;;;;;;;8.17;98.26;102524.81;5040760;28;20518;-72
2023/05/24 01:28:47;;;;;;;18.77;4.72;;;;;;;8.18;97.61;102532.00;5040839;28;20285;-73
2023/05/24 01:31:14;;;;;;;21.23;4.03;;;;;;;8.08;99.05;102528.38;5039494;28;20051;-72
2023/05/24 01:33:43;;;;;;;15.32;3.63;;;;;;;8.04;100.00;102527.78;5077114;28;20472;-72
2023/05/24 01:36:09;;;;;;;23.40;5.97;;;;;;;8.03;98.15;102522.47;5039239;28;20050;-72
2023/05/24 01:38:36;;;;;;;14.98;4.05;;;;;;;8.02;98.36;102520.75;5038270;28;20100;-72
2023/05/24 01:41:31;;;;;;;22.73;4.95;;;;;;;7.99;99.53;102524.63;5039334;28;20035;-72
2023/05/24 01:44:22;;;;;;;16.58;4.50;;;;;;;7.96;100.00;102524.88;5035463;28;20029;-72
2023/05/24 01:46:57;;;;;;;18.48;5.10;;;;;;;7.92;99.01;102531.66;5042915;28;20112;-72
2023/05/24 01:49:32;;;;;;;16.50;4.50;;;;;;;7.85;99.05;102527.72;5043190;28;20547;-72
2023/05/24 01:52:02;;;;;;;19.60;5.85;;;;;;;7.87;99.89;102528.47;5044113;28;20026;-72
2023/05/24 01:54:32;;;;;;;23.77;5.55;;;;;;;7.86;99.33;102534.06;5042720;28;20110;-73
2023/05/24 01:57:01;;;;;;;17.77;5.07;;;;;;;7.83;100.00;102528.84;5036724;28;20029;-72
2023/05/24 01:59:30;;;;;;;17.13;4.63;;;;;;;7.76;100.00;102531.31;5039327;28;20116;-72
2023/05/24 02:01:56;;;;;;;23.10;4.93;;;;;;;7.76;100.00;102535.88;5065700;28;20523;-72
2023/05/24 02:04:23;;;;;;;21.40;4.13;;;;;;;7.78;99.66;102534.75;5042252;28;20025;-72
2023/05/24 02:06:48;;;;;;;24.15;5.68;;;;;;;7.76;100.00;102533.16;5042526;28;20033;-72
2023/05/24 02:09:14;;;;;;;20.50;4.78;;;;;;;7.80;100.00;102537.34;5046858;28;20106;-73
2023/05/24 02:11:40;;;;;;;22.07;5.30;;;;;;;7.76;100.00;102542.22;5038885;28;20038;-72
2023/05/24 02:14:06;;;;;;;19.00;5.23;;;;;;;7.75;100.00;102539.63;5037987;28;20022;-72
2023/05/24 02:16:41;;;;;;;25.73;3.83;;;;;;;7.72;100.00;102548.06;5035086;28;20579;-72
2023/05/24 02:19:07;;;;;;;19.23;4.90;;;;;;;7.70;100.00;102544.63;5035120;28;20508;-72
2023/05/24 02:21:33;;;;;;;22.00;4.55;;;;;;;7.72;100.00;102545.34;5042386;28;20040;-73
2023/05/24 02:23:58;;;;;;;14.10;4.95;;;;;;;7.63;100.00;102540.72;5025346;28;20024;-73
2023/05/24 02:26:24;;;;;;;24.50;5.25;;;;;;;7.68;100.00;102535.72;5033521;28;20086;-72
2023/05/24 02:28:50;;;;;;;24.73;5.13;;;;;;;7.67;100.00;102531.25;5040323;28;20465;-72
2023/05/24 02:31:16;;;;;;;19.98;5.78;;;;;;;7.59;100.00;102526.47;5034428;28;20152;-72
2023/05/24 02:33:43;;;;;;;22.25;5.70;;;;;;;7.57;100.00;102527.59;5044658;28;20381;-72
2023/05/24 02:36:08;;;;;;;20.02;5.05;;;;;;;7.58;100.00;102537.53;5039182;28;20095;-72
2023/05/24 02:38:35;;;;;;;22.00;6.00;;;;;;;7.62;100.00;102531.66;5038625;28;20120;-73
2023/05/24 02:41:01;;;;;;;25.60;5.07;;;;;;;7.58;100.00;102526.63;5038687;28;20564;-72
2023/05/24 02:43:27;;;;;;;15.98;5.18;;;;;;;7.59;100.00;102525.63;5039633;28;20166;-72
2023/05/24 02:45:52;;;;;;;19.13;5.50;;;;;;;7.52;100.00;102524.47;5039729;28;20023;-72
2023/05/24 02:48:17;;;;;;;19.38;4.38;;;;;;;7.50;100.00;102523.72;5038633;28;20037;-72
2023/05/24 02:50:43;;;;;;;19.75;5.15;;;;;;;7.48;100.00;102520.28;5042366;28;20650;-74
2023/05/24 02:53:09;;;;;;;18.95;4.65;;;;;;;7.55;100.00;102521.44;5040706;28;20495;-74
2023/05/24 02:55:34;;;;;;;23.77;5.20;;;;;;;7.53;100.00;102527.03;5037076;28;20048;-73
2023/05/24 02:58:00;;;;;;;20.40;4.40;;;;;;;7.54;100.00;102527.91;5042025;28;20079;-73
2023/05/24 03:00:25;;;;;;;23.30;4.70;;;;;;;7.52;100.00;102530.75;5040361;28;20032;-71
2023/05/24 03:02:51;;;;;;;23.75;5.22;;;;;;;7.53;100.00;102528.91;5038089;28;20020;-71
2023/05/24 03:05:17;;;;;;;18.95;3.97;;;;;;;7.53;100.00;102528.91;5037809;28;20035;-71
2023/05/24 03:07:42;;;;;;;22.05;4.07;;;;;;;7.54;100.00;102522.44;5039559;28;20028;-71
2023/05/24 03:10:08;;;;;;;20.17;4.80;;;;;;;7.46;100.00;102525.84;5039336;28;20032;-72
2023/05/24 03:12:34;;;;;;;23.67;4.80;;;;;;;7.49;100.00;102516.53;5069557;28;20040;-71
2023/05/24 03:14:59;;;;;;;19.90;5.15;;;;;;;7.49;100.00;102527.44;5033895;28;20072;-71
2023/05/24 03:17:25;;;;;;;23.27;4.47;;;;;;;7.43;100.00;102523.38;5032652;28;20047;-72
2023/05/24 03:19:51;;;;;;;19.58;4.63;;;;;;;7.45;100.00;102523.25;5035442;28;20026;-71
2023/05/24 03:22:17;;;;;;;19.52;4.25;;;;;;;7.46;100.00;102523.13;5037329;28;20124;-71
2023/05/24 03:24:43;;;;;;;18.85;4.20;;;;;;;7.47;100.00;102519.41;5035125;28;20132;-71
2023/05/24 03:27:08;;;;;;;13.93;4.65;;;;;;;7.45;100.00;102515.06;5040985;28;20038;-71
2023/05/24 03:29:33;;;;;;;21.60;3.90;;;;;;;7.42;100.00;102515.38;5037796;28;20040;-71
2023/05/24 03:31:59;;;;;;;19.45;4.40;;;;;;;7.39;100.00;102511.06;5037068;28;20788;-70
2023/05/24 03:34:24;;;;;;;18.23;4.82;;;;;;;7.45;100.00;102515.06;5035286;28;20150;-71
2023/05/24 03:36:50;;;;;;;12.40;4.18;;;;;;;7.42;100.00;102509.91;5035190;28;20505;-69
2023/05/24 03:39:15;;;;;;;15.63;4.25;;;;;;;7.35;100.00;102512.31;5040057;28;20028;-70
2023/05/24 03:41:41;;;;;;;14.27;3.67;;;;;;;7.38;100.00;102513.91;5037160;28;20036;-71
2023/05/24 03:44:08;;;;;;;14.07;4.65;;;;;;;7.38;100.00;102512.03;5036325;28;20039;-70
2023/05/24 03:46:34;;;;;;;19.95;4.97;;;;;;;7.39;100.00;102512.91;5042920;28;20154;-70
2023/05/24 03:48:59;;;;;;;17.15;4.45;;;;;;;7.35;100.00;102511.44;5038496;28;20421;-70
2023/05/24 03:51:28;;;;;;;17.97;5.57;;;;;;;7.35;100.00;102504.13;5036944;28;20322;-70
2023/05/24 03:53:56;;;;;;;19.77;4.05;;;;;;;7.40;100.00;102506.44;5029152;28;20029;-70
2023/05/24 03:56:22;;;;;;;17.92;4.65;;;;;;;7.42;100.00;102509.91;5034662;28;20030;-70
2023/05/24 03:58:48;;;;;;;13.50;3.83;;;;;;;7.45;100.00;102509.63;5038704;28;20029;-71
2023/05/24 04:01:13;;;;;;;21.80;4.55;;;;;;;7.46;100.00;102503.16;5037490;28;20036;-71
2023/05/24 04:03:40;;;;;;;17.50;4.72;;;;;;;7.48;100.00;102506.63;5035158;28;20131;-72
2023/05/24 04:06:05;;;;;;;16.02;4.30;;;;;;;7.52;100.00;102514.41;5037743;28;20539;-71
2023/05/24 04:08:31;;;;;;;16.67;4.78;;;;;;;7.51;100.00;102514.53;5039400;28;20029;-71
2023/05/24 04:10:56;;;;;;;21.02;4.85;;;;;;;7.59;100.00;102514.72;5042061;28;20481;-71
2023/05/24 04:13:22;;;;;;;21.38;4.32;;;;;;;7.63;100.00;102513.44;5034803;28;20025;-70
2023/05/24 04:15:47;;;;;;;17.88;4.47;;;;;;;7.69;100.00;102518.34;5036217;28;20034;-69
2023/05/24 04:18:13;;;;;;;23.23;5.28;;;;;;;7.72;100.00;102523.50;5040643;28;20041;-70
2023/05/24 04:20:38;;;;;;;20.00;4.22;;;;;;;7.77;100.00;102519.38;5037552;28;20040;-70
2023/05/24 04:23:05;;;;;;;18.13;4.82;;;;;;;7.81;100.00;102520.84;5030141;28;20079;-70
2023/05/24 04:25:32;;;;;;;20.65;4.10;;;;;;;7.90;100.00;102524.59;5034427;28;20025;-71
2023/05/24 04:27:57;;;;;;;23.40;4.97;;;;;;;7.94;100.00;102528.75;5029859;28;20469;-69
2023/05/24 04:30:23;;;;;;;17.40;4.88;;;;;;;8.02;100.00;102528.94;5037859;28;20079;-70
2023/05/24 04:32:48;;;;;;;18.25;4.88;;;;;;;8.06;100.00;102523.03;5033292;28;20390;-69
2023/05/24 04:35:14;;;;;;;17.67;5.30;;;;;;;8.11;100.00;102531.69;5032631;28;20489;-69
2023/05/24 04:37:39;;;;;;;20.70;4.45;;;;;;;8.16;100.00;102525.81;5035298;28;20505;-70
2023/05/24 04:40:06;;;;;;;11.93;3.73;;;;;;;8.27;100.00;102525.72;5036871;28;20029;-70
2023/05/24 04:42:32;;;;;;;;;;;;;;;8.29;100.00;102523.69;5038776;28;20039;-68
2023/05/24 04:44:58;;;;;;;18.30;4.22;;;;;;;8.41;100.00;102517.09;5070208;28;20035;-69
2023/05/24 04:47:24;;;;;;;20.23;5.28;;;;;;;8.44;100.00;102516.81;5033539;28;20605;-70
2023/05/24 04:49:49;;;;;;;17.33;5.67;;;;;;;8.55;100.00;102516.69;5035499;28;20031;-70
2023/05/24 04:52:16;;;;;;;20.73;7.38;;;;;;;8.64;100.00;102519.41;5037003;28;20142;-71
2023/05/24 04:54:41;;;;;;;22.77;5.75;;;;;;;8.74;100.00;102522.13;5032434;28;20036;-70
2023/05/24 04:57:07;;;;;;;25.05;5.63;;;;;;;8.94;100.00;102532.03;5032333;28;20033;-70
2023/05/24 04:59:35;;;;;;;25.60;6.13;;;;;;;9.05;100.00;102523.69;5036847;28;20040;-70
2023/05/24 05:02:01;;;;;;;24.23;5.05;;;;;;;9.16;100.00;102520.78;5038729;28;20028;-69
2023/05/24 05:04:26;;;;;;;24.25;4.93;;;;;;;9.33;100.00;102522.75;5036567;28;20040;-69
2023/05/24 05:06:52;;;;;;;24.20;6.00;;;;;;;9.44;100.00;102525.34;5034725;28;20082;-69
2023/05/24 05:09:17;;;;;;;21.60;4.35;;;;;;;9.58;100.00;102522.97;5033108;28;20026;-68
2023/05/24 05:11:45;;;;;;;31.40;5.03;;;;;;;9.79;100.00;102509.03;5049213;28;20485;-69
2023/05/24 05:14:10;;;;;;;23.73;4.57;;;;;;;10.09;100.00;102508.78;5043247;28;20120;-69
2023/05/24 05:16:37;;;;;;;36.33;7.30;;;;;;;10.59;100.00;102516.34;5035070;28;20195;-69
2023/05/24 05:19:03;;;;;;;26.65;5.85;;;;;;;11.45;96.81;102509.97;5041794;28;20064;-69
2023/05/24 05:21:31;;;;;;;26.90;5.65;;;;;;;12.26;92.31;102504.72;5069843;28;20432;-69
2023/05/24 05:23:59;;;;;;;29.73;4.75;;;;;;;13.13;88.46;102508.59;5038826;28;20505;-69
2023/05/24 05:26:29;;;;;;;23.95;4.85;;;;;;;13.77;84.85;102496.59;5035262;28;20032;-69
2023/05/24 05:28:54;;;;;;;30.17;5.30;;;;;;;14.30;80.20;102507.75;5034250;28;20430;-70
2023/05/24 05:31:20;;;;;;;21.73;4.30;;;;;;;14.42;79.33;102504.38;5034871;28;20059;-70
2023/05/24 05:33:46;;;;;;;22.83;5.68;;;;;;;14.77;78.09;102513.94;5039777;28;20060;-70
2023/05/24 05:36:11;;;;;;;21.23;6.70;;;;;;;15.11;75.94;102512.47;5034829;28;20080;-70
2023/05/24 05:38:37;;;;;;;19.27;5.40;;;;;;;15.45;75.88;102514.75;5033454;28;20456;-71
2023/05/24 05:41:02;;;;;;;22.63;5.33;;;;;;;15.45;73.32;102525.81;5034941;28;20025;-71
2023/05/24 05:43:34;;;;;;;31.13;5.40;;;;;;;15.67;73.98;102524.88;5038495;28;20064;-71
2023/05/24 05:46:20;;;;;;;24.23;5.63;;;;;;;15.38;74.06;102525.69;5035991;28;20013;-71
2023/05/24 05:48:48;;;;;;;24.13;5.88;;;;;;;15.74;72.81;102526.69;5037602;28;20042;-70
2023/05/24 05:51:13;;;;;;;21.40;4.40;;;;;;;15.84;74.19;102523.66;5042163;28;20032;-71
2023/05/24 05:53:39;;;;;;;28.53;5.17;;;;;;;15.13;73.37;102526.94;5033630;28;20025;-71
2023/05/24 05:56:05;;;;;;;21.33;4.67;;;;;;;16.00;70.54;102515.19;5040253;28;20021;-71
2023/05/24 05:58:30;;;;;;;20.38;4.93;;;;;;;15.18;73.94;102518.09;5039770;28;20503;-70
2023/05/24 06:00:55;;;;;;;17.13;4.93;;;;;;;14.82;77.45;102523.41;5039875;28;20029;-71
2023/05/24 06:03:21;;;;;;;23.67;4.47;;;;;;;14.73;77.81;102527.25;5042938;28;20029;-71
2023/05/24 06:05:46;;;;;;;36.20;6.10;;;;;;;15.45;74.23;102526.69;5041915;28;20215;-71
2023/05/24 06:08:12;;;;;;;24.17;4.07;;;;;;;14.59;76.59;102527.19;5037004;28;20374;-71
2023/05/24 06:10:37;;;;;;;20.77;4.63;;;;;;;14.65;77.12;102537.50;5039628;28;20025;-71
2023/05/24 06:13:03;;;;;;;17.63;4.43;;;;;;;14.04;79.29;102537.47;5040440;28;20029;-71
2023/05/24 06:15:29;;;;;;;28.30;5.70;;;;;;;13.66;81.05;102535.53;5038255;28;20725;-71
2023/05/24 06:17:54;;;;;;;27.10;4.37;;;;;;;13.53;83.36;102543.47;5045262;28;20033;-71
2023/05/24 06:20:20;;;;;;;28.73;5.17;;;;;;;13.40;83.10;102537.66;5040330;28;20033;-71
2023/05/24 06:22:48;;;;;;;28.20;4.50;;;;;;;13.35;83.89;102542.81;5045517;28;20428;-71
2023/05/24 06:25:18;;;;;;;28.42;5.07;;;;;;;13.26;84.16;102544.72;5031549;28;20022;-71
2023/05/24 06:27:43;;;;;;;22.67;5.15;;;;;;;13.36;84.01;102550.91;5042336;28;20022;-70
2023/05/24 06:30:09;;;;;;;31.30;4.90;;;;;;;13.41;84.45;102553.13;5031788;28;20052;-70
2023/05/24 06:32:35;;;;;;;28.80;5.70;;;;;;;13.46;83.34;102551.53;5037633;28;20021;-70
2023/05/24 06:35:00;;;;;;;28.60;5.93;;;;;;;13.39;83.44;102557.94;5036401;28;20393;-70
2023/05/24 06:37:25;;;;;;;15.30;3.73;;;;;;;13.42;83.73;102558.47;5045663;28;20151;-71
2023/05/24 06:39:51;;;;;;;25.40;5.30;;;;;;;13.21;83.95;102560.88;5044776;28;20025;-70
2023/05/24 06:42:16;;;;;;;22.40;4.97;;;;;;;13.02;85.23;102565.88;5045294;28;20029;-70
2023/05/24 06:44:42;;;;;;;18.67;4.10;;;;;;;13.09;84.58;102566.91;5034086;28;20109;-70
2023/05/24 06:47:08;;;;;;;29.37;6.00;;;;;;;12.93;83.79;102558.59;5041400;28;20534;-70
2023/05/24 06:49:33;;;;;;;17.60;4.70;;;;;;;12.96;84.71;102559.16;5042992;28;20484;-71
2023/05/24 06:51:59;;;;;;;23.67;4.37;;;;;;;13.17;83.45;102554.00;5039806;28;20029;-69
2023/05/24 06:54:24;;;;;;;26.67;5.90;;;;;;;13.43;81.63;102560.19;5044192;28;20020;-70
2023/05/24 06:56:50;;;;;;;43.73;5.93;;;;;;;13.58;80.68;102550.19;5037807;28;20116;-70
2023/05/24 06:59:15;;;;;;;25.53;4.13;;;;;;;13.83;80.37;102551.81;5041359;28;20389;-71
2023/05/24 07:01:41;;;;;;;19.40;4.43;;;;;;;13.51;79.93;102557.41;5033291;28;20491;-71
2023/05/24 07:04:08;;;;;;;24.67;4.68;;;;;;;13.40;80.16;102556.91;5050755;28;20503;-71
2023/05/24 07:06:33;;;;;;;18.08;4.05;;;;;;;13.67;81.00;102551.00;5041990;28;20021;-70
2023/05/24 07:09:00;;;;;;;32.07;4.33;;;;;;;14.10;79.38;102545.00;5041612;28;20040;-70
2023/05/24 07:11:27;;;;;;;21.52;4.18;;;;;;;14.19;78.21;102543.94;5043454;28;20484;-70
2023/05/24 07:13:52;;;;;;;22.00;5.22;;;;;;;14.08;77.83;102539.66;5041298;28;20029;-70
2023/05/24 07:16:17;;;;;;;22.60;4.63;;;;;;;14.32;77.84;102538.72;5043017;28;20091;-70
2023/05/24 07:18:43;;;;;;;27.13;4.20;;;;;;;14.58;76.01;102536.53;5040272;28;20033;-70
2023/05/24 07:21:08;;;;;;;23.03;4.73;;;;;;;14.45;77.70;102536.22;5041647;28;20060;-70
2023/05/24 07:23:35;;;;;;;26.00;5.53;;;;;;;14.70;77.08;102537.81;5045261;28;20175;-71
2023/05/24 07:26:01;;;;;;;26.08;4.40;;;;;;;14.71;75.03;102536.75;5042873;28;20021;-71
2023/05/24 07:28:26;;;;;;;18.57;3.90;;;;;;;14.51;73.79;102530.03;5047254;28;20061;-71
2023/05/24 07:30:52;;;;;;;27.23;5.03;;;;;;;14.75;75.31;102538.13;5038391;28;20439;-71
2023/05/24 07:33:17;;;;;;;30.37;4.77;;;;;;;14.96;75.70;102552.09;5037977;28;20382;-71
2023/05/24 07:35:44;;;;;;;26.53;4.30;;;;;;;15.14;74.24;102555.41;5035855;28;20079;-71
2023/05/24 07:38:10;;;;;;;22.88;4.68;;;;;;;15.24;72.16;102551.34;5031956;28;20095;-71
2023/05/24 07:40:36;;;;;;;18.10;4.38;;;;;;;15.16;71.02;102556.09;5067952;28;20080;-71
2023/05/24 07:43:01;;;;;;;18.50;3.87;;;;;;;14.71;70.35;102556.06;5038505;28;20034;-71
2023/05/24 07:45:26;;;;;;;23.10;3.40;;;;;;;14.78;70.83;102560.69;5037575;28;20032;-71
2023/05/24 07:47:52;;;;;;;15.90;4.03;;;;;;;14.60;71.42;102560.13;5040016;28;20021;-72
2023/05/24 07:50:17;;;;;;;16.70;3.57;;;;;;;14.77;72.21;102560.84;5038745;28;20033;-71
2023/05/24 07:52:44;;;;;;;29.00;5.60;;;;;;;14.84;71.60;102559.09;5036761;28;20485;-71
2023/05/24 07:55:10;;;;;;;16.60;4.28;;;;;;;14.62;71.56;102562.69;5036976;28;20079;-70
2023/05/24 07:57:35;;;;;;;22.23;4.55;;;;;;;14.99;70.48;102560.88;5033314;28;20098;-71
2023/05/24 08:00:08;;;;;;;28.20;5.27;;;;;;;14.93;69.55;102563.50;5035568;28;20026;-71
2023/05/24 08:02:34;;;;;;;19.55;3.97;;;;;;;15.28;69.51;102565.63;5034317;28;20104;-71
2023/05/24 08:05:00;;;;;;;21.03;4.13;;;;;;;15.43;69.32;102555.53;5037339;28;20565;-71
2023/05/24 08:07:25;;;;;;;24.30;6.37;;;;;;;15.73;69.67;102563.66;5067258;28;20029;-72
2023/05/24 08:09:51;;;;;;;18.83;4.53;;;;;;;15.68;68.34;102554.25;5035960;28;20045;-71
2023/05/24 08:12:17;;;;;;;21.40;5.47;;;;;;;15.59;69.46;102555.38;5032195;28;20033;-71
2023/05/24 08:14:42;;;;;;;25.07;5.83;;;;;;;15.51;69.25;102559.06;5038287;28;20048;-71
2023/05/24 08:17:07;;;;;;;20.47;5.27;;;;;;;15.56;69.39;102551.06;5034395;28;20029;-71
2023/05/24 08:19:34;;;;;;;24.87;6.27;;;;;;;15.89;69.16;102546.03;5035991;28;20033;-71
2023/05/24 08:22:03;;;;;;;21.27;5.10;;;;;;;16.08;68.27;102556.53;5040766;28;20390;-71
2023/05/24 08:24:30;;;;;;;20.33;5.18;;;;;;;15.97;68.30;102559.78;5034613;28;20418;-71
2023/05/24 08:26:55;;;;;;;23.65;5.10;;;;;;;15.73;68.15;102546.22;5035178;28;20040;-71
2023/05/24 08:29:21;;;;;;;19.80;4.90;;;;;;;15.98;66.22;102548.53;5032027;28;20378;-72
2023/05/24 08:31:47;;;;;;;24.87;5.50;;;;;;;15.64;66.96;102555.66;5036044;28;20029;-73
2023/05/24 08:34:12;;;;;;;21.10;5.17;;;;;;;15.63;66.74;102553.94;5040383;28;20063;-73
2023/05/24 08:36:39;;;;;;;;;;;;;;;15.48;67.45;102553.06;5033344;28;20049;-73
2023/05/24 08:39:05;;;;;;;23.55;5.20;;;;;;;16.26;67.02;102552.31;5036672;28;19913;-74
2023/05/24 08:41:36;;;;;;;22.27;4.70;;;;;;;16.80;66.01;102545.34;5037206;28;20139;-73
2023/05/24 08:44:06;;;;;;;22.52;4.63;;;;;;;17.06;64.20;102550.28;5030686;28;20055;-73
2023/05/24 08:46:36;;;;;;;25.88;6.35;;;;;;;17.06;63.92;102551.16;5031647;28;20473;-73
2023/05/24 08:49:02;;;;;;;22.08;5.15;;;;;;;16.69;64.04;102553.28;5033272;28;20029;-73
2023/05/24 08:51:29;;;;;;;15.23;4.50;;;;;;;16.95;63.90;102553.59;5035081;28;20063;-73
2023/05/24 08:54:00;;;;;;;26.65;6.50;;;;;;;16.97;63.78;102552.34;5035527;28;20036;-73
2023/05/24 08:56:26;;;;;;;25.95;4.45;;;;;;;16.78;62.07;102550.22;5036540;28;20051;-73
2023/05/24 08:58:53;;;;;;;17.10;4.35;;;;;;;16.68;62.66;102551.59;5034899;28;20049;-73
2023/05/24 09:01:20;;;;;;;20.75;4.78;;;;;;;16.52;62.71;102554.59;5036395;28;20484;-70
2023/05/24 09:03:46;;;;;;;24.85;4.88;;;;;;;17.18;61.83;102552.31;5037670;28;20033;-70
2023/05/24 09:06:15;;;;;;;24.60;4.43;;;;;;;16.99;61.54;102547.47;5032976;28;20022;-70
2023/05/24 09:08:41;;;;;;;19.20;4.47;;;;;;;17.65;60.34;102560.00;5040435;28;20033;-70
2023/05/24 09:11:07;;;;;;;19.40;5.07;;;;;;;17.14;61.19;102562.09;5030827;28;20070;-70
2023/05/24 09:13:34;;;;;;;20.10;4.93;;;;;;;17.45;60.57;102553.47;5033425;28;20056;-70
2023/05/24 09:16:00;;;;;;;21.38;5.32;;;;;;;17.70;59.86;102557.47;5033633;28;20531;-70
2023/05/24 09:18:26;;;;;;;20.52;4.40;;;;;;;18.03;60.59;102553.88;5034647;28;20033;-70
2023/05/24 09:20:51;;;;;;;21.07;5.00;;;;;;;18.08;59.25;102550.50;5033409;28;20021;-70
2023/05/24 09:23:17;;;;;;;17.73;4.90;;;;;;;18.00;57.38;102550.66;5036763;28;20033;-70
2023/05/24 09:25:46;;;;;;;23.70;5.33;;;;;;;18.14;56.18;102561.63;5035692;28;20025;-70
2023/05/24 09:28:16;;;;;;;15.98;5.43;;;;;;;17.76;56.78;102551.16;5035532;28;20197;-70
2023/05/24 09:30:56;;;;;;;20.45;4.90;;;;;;;18.45;55.54;102553.69;5042636;28;20128;-70
2023/05/24 09:33:22;;;;;;;17.50;4.63;;;;;;;18.13;55.66;102551.59;5041528;28;20036;-70
2023/05/24 09:35:48;;;;;;;15.77;4.60;;;;;;;18.52;54.54;102545.41;5037563;28;20463;-70
2023/05/24 09:38:18;;;;;;;15.57;4.40;;;;;;;18.42;55.40;102539.38;5038974;28;20493;-69
2023/05/24 09:40:44;;;;;;;19.30;4.60;;;;;;;17.84;56.00;102546.31;5038694;28;20021;-69
2023/05/24 09:43:10;;;;;;;21.25;5.50;;;;;;;17.28;57.85;102536.22;5036533;28;20122;-69
2023/05/24 09:45:45;;;;;;;20.00;5.35;;;;;;;17.96;56.78;102535.47;5039447;28;20067;-70
2023/05/24 09:48:12;;;;;;;18.52;4.10;;;;;;;18.53;55.67;102530.47;5039296;28;20025;-69
2023/05/24 09:50:38;;;;;;;20.55;4.18;;;;;;;19.19;52.31;102535.06;5037921;28;20060;-70
2023/05/24 09:53:03;;;;;;;17.60;4.07;;;;;;;19.16;52.24;102529.97;5038516;28;20029;-70
2023/05/24 09:55:29;;;;;;;18.30;4.77;;;;;;;18.88;53.69;102521.78;5039304;28;20063;-69
2023/05/24 09:58:02;;;;;;;22.87;4.37;;;;;;;18.98;52.99;102511.13;5038712;28;22200;-69
2023/05/24 10:00:29;;;;;;;15.68;3.85;;;;;;;18.78;53.49;102515.78;5041801;28;20363;-70
2023/05/24 10:03:07;;;;;;;18.88;4.70;;;;;;;19.17;52.90;102524.19;5039194;28;20476;-70
2023/05/24 10:05:34;;;;;;;22.38;4.43;;;;;;;18.41;54.94;102523.81;5043697;28;20018;-69
2023/05/24 10:08:00;;;;;;;;;;;;;;;18.70;53.64;102515.13;5037978;28;20029;-70
2023/05/24 10:10:28;;;;;;;20.48;4.68;;;;;;;18.63;53.45;102511.50;5040870;28;19920;-70
2023/05/24 10:12:55;;;;;;;23.88;4.70;;;;;;;18.25;54.32;102513.88;5042384;28;20033;-70
2023/05/24 10:15:21;;;;;;;17.70;3.92;;;;;;;17.98;55.77;102513.97;5045126;28;20040;-69
2023/05/24 10:17:46;;;;;;;23.07;4.87;;;;;;;18.72;52.94;102502.75;5033992;28;20417;-69
2023/05/24 10:20:12;;;;;;;24.80;4.23;;;;;;;18.87;52.75;102508.97;5039473;28;20026;-69
2023/05/24 10:22:43;;;;;;;19.47;4.80;;;;;;;18.70;53.89;102501.25;5036353;28;20112;-69
2023/05/24 10:25:13;;;;;;;12.05;3.83;;;;;;;18.66;52.04;102500.81;5036047;28;20033;-69
2023/05/24 10:27:40;;;;;;;17.70;3.63;;;;;;;19.37;50.33;102508.41;5044523;28;20083;-69
2023/05/24 10:30:17;;;;;;;16.92;4.07;;;;;;;19.87;49.62;102499.34;5036089;28;20392;-70
2023/05/24 10:32:45;;;;;;;18.38;4.60;;;;;;;19.50;49.90;102502.84;5043592;28;20522;-70
2023/05/24 10:35:13;;;;;;;14.13;4.32;;;;;;;19.78;48.79;102505.34;5047531;28;20067;-70
2023/05/24 10:37:39;;;;;;;19.52;4.55;;;;;;;19.93;48.53;102511.53;5045371;28;20048;-69
2023/05/24 10:40:08;;;;;;;22.23;4.88;;;;;;;20.42;48.53;102511.78;5037340;28;20020;-70
2023/05/24 10:42:34;;;;;;;17.95;4.30;;;;;;;20.08;48.46;102504.69;5038583;28;20033;-69
2023/05/24 10:45:24;;;;;;;15.77;4.13;;;;;;;19.01;50.23;102509.84;5037544;28;20025;-70
2023/05/24 10:47:50;;;;;;;22.52;5.00;;;;;;;18.67;52.59;102508.06;5038246;28;20436;-69
2023/05/24 10:50:17;;;;;;;14.45;4.03;;;;;;;18.29;52.58;102514.31;5038812;28;20029;-69
2023/05/24 10:52:42;;;;;;;20.27;4.43;;;;;;;18.07;53.50;102504.38;5039693;28;20038;-70
2023/05/24 10:55:09;;;;;;;17.23;4.03;;;;;;;17.85;53.81;102509.19;5044867;28;20044;-70
2023/05/24 10:57:35;;;;;;;;;;;;;;;17.83;53.37;102508.53;5045904;28;20032;-69
2023/05/24 11:00:19;;;;;;;17.17;3.78;;;;;;;17.63;53.46;102502.03;5038188;28;19995;-69
2023/05/24 11:02:48;;;;;;;16.70;4.53;;;;;;;18.35;52.00;102508.81;5039222;28;20036;-70
2023/05/24 11:05:14;;;;;;;21.10;4.68;;;;;;;18.59;52.67;102499.97;5036629;28;20623;-69
2023/05/24 11:07:43;;;;;;;15.70;4.40;;;;;;;19.63;51.29;102491.69;5036326;28;20112;-69
2023/05/24 11:10:14;;;;;;;16.05;4.45;;;;;;;19.87;47.93;102495.69;5035578;28;20285;-69
2023/05/24 11:12:40;;;;;;;19.05;5.13;;;;;;;20.25;47.11;102500.31;5033408;28;20543;-69
2023/05/24 11:15:08;;;;;;;18.38;4.45;;;;;;;20.45;47.06;102489.09;5038864;28;20025;-69
2023/05/24 11:18:07;;;;;;;15.80;3.53;;;;;;;21.00;45.60;102502.25;5040927;28;20159;-69
2023/05/24 11:20:33;;;;;;;15.35;4.88;;;;;;;19.82;47.31;102498.28;5038873;28;20396;-69